sensor_id;sensor_type;location;lat;lon;timestamp;P1;durP1;ratioP1;P2;durP2;ratioP2
351;SDS011;164;50.784;6.496;2022-07-23T00:01:20;11.20;;;10.60;;
351;SDS011;164;50.784;6.496;2022-07-23T00:03:47;11.10;;;10.50;;
351;SDS011;164;50.784;6.496;2022-07-23T00:06:14;13.80;;;13.10;;
351;SDS011;164;50.784;6.496;2022-07-23T00:08:41;10.63;;;10.02;;
351;SDS011;164;50.784;6.496;2022-07-23T00:11:08;13.75;;;10.90;;
351;SDS011;164;50.784;6.496;2022-07-23T00:13:35;11.63;;;10.15;;
351;SDS011;164;50.784;6.496;2022-07-23T00:16:02;10.13;;;9.55;;
351;SDS011;164;50.784;6.496;2022-07-23T00:18:31;9.40;;;8.90;;
351;SDS011;164;50.784;6.496;2022-07-23T00:20:58;9.70;;;8.75;;
351;SDS011;164;50.784;6.496;2022-07-23T00:23:25;8.90;;;8.40;;
351;SDS011;164;50.784;6.496;2022-07-23T00:25:54;11.63;;;11.02;;
351;SDS011;164;50.784;6.496;2022-07-23T00:28:21;11.98;;;11.38;;
351;SDS011;164;50.784;6.496;2022-07-23T00:30:48;12.85;;;12.15;;
351;SDS011;164;50.784;6.496;2022-07-23T00:33:15;14.02;;;12.50;;
351;SDS011;164;50.784;6.496;2022-07-23T00:35:43;15.20;;;14.40;;
351;SDS011;164;50.784;6.496;2022-07-23T00:38:10;13.85;;;13.15;;
351;SDS011;164;50.784;6.496;2022-07-23T00:40:37;11.25;;;10.65;;
351;SDS011;164;50.784;6.496;2022-07-23T00:43:05;14.15;;;12.77;;
351;SDS011;164;50.784;6.496;2022-07-23T00:45:32;13.05;;;11.70;;
351;SDS011;164;50.784;6.496;2022-07-23T00:48:00;11.50;;;10.90;;
351;SDS011;164;50.784;6.496;2022-07-23T00:50:27;11.60;;;10.55;;
351;SDS011;164;50.784;6.496;2022-07-23T00:52:56;12.23;;;11.05;;
351;SDS011;164;50.784;6.496;2022-07-23T00:55:23;11.40;;;9.90;;
351;SDS011;164;50.784;6.496;2022-07-23T00:57:50;12.93;;;11.98;;
351;SDS011;164;50.784;6.496;2022-07-23T01:00:20;13.30;;;12.60;;
351;SDS011;164;50.784;6.496;2022-07-23T01:02:47;12.55;;;11.93;;
351;SDS011;164;50.784;6.496;2022-07-23T01:05:15;15.43;;;12.68;;
351;SDS011;164;50.784;6.496;2022-07-23T01:07:47;12.32;;;11.68;;
351;SDS011;164;50.784;6.496;2022-07-23T01:10:15;14.35;;;12.52;;
351;SDS011;164;50.784;6.496;2022-07-23T01:12:58;13.52;;;12.82;;
351;SDS011;164;50.784;6.496;2022-07-23T01:15:25;12.50;;;11.90;;
351;SDS011;164;50.784;6.496;2022-07-23T01:17:52;13.57;;;12.88;;
351;SDS011;164;50.784;6.496;2022-07-23T01:20:20;14.02;;;13.32;;
351;SDS011;164;50.784;6.496;2022-07-23T01:22:49;14.88;;;13.40;;
351;SDS011;164;50.784;6.496;2022-07-23T01:25:16;13.25;;;12.55;;
351;SDS011;164;50.784;6.496;2022-07-23T01:27:43;13.57;;;12.88;;
351;SDS011;164;50.784;6.496;2022-07-23T01:30:10;14.13;;;13.32;;
351;SDS011;164;50.784;6.496;2022-07-23T01:32:38;16.65;;;15.20;;
351;SDS011;164;50.784;6.496;2022-07-23T01:35:06;19.05;;;18.08;;
351;SDS011;164;50.784;6.496;2022-07-23T01:37:34;19.17;;;18.17;;
351;SDS011;164;50.784;6.496;2022-07-23T01:40:03;17.85;;;16.95;;
351;SDS011;164;50.784;6.496;2022-07-23T01:42:31;17.45;;;16.55;;
351;SDS011;164;50.784;6.496;2022-07-23T01:44:59;17.35;;;16.45;;
351;SDS011;164;50.784;6.496;2022-07-23T01:47:26;17.73;;;16.33;;
351;SDS011;164;50.784;6.496;2022-07-23T01:49:53;18.65;;;16.23;;
351;SDS011;164;50.784;6.496;2022-07-23T01:52:20;17.30;;;16.42;;
351;SDS011;164;50.784;6.496;2022-07-23T01:54:47;16.05;;;15.18;;
351;SDS011;164;50.784;6.496;2022-07-23T01:57:15;18.15;;;17.25;;
351;SDS011;164;50.784;6.496;2022-07-23T01:59:42;17.83;;;16.92;;
351;SDS011;164;50.784;6.496;2022-07-23T02:02:09;18.70;;;17.77;;
351;SDS011;164;50.784;6.496;2022-07-23T02:04:36;19.50;;;18.50;;
351;SDS011;164;50.784;6.496;2022-07-23T02:07:03;20.05;;;19.05;;
351;SDS011;164;50.784;6.496;2022-07-23T02:09:31;22.83;;;21.73;;
351;SDS011;164;50.784;6.496;2022-07-23T02:11:58;20.90;;;19.90;;
351;SDS011;164;50.784;6.496;2022-07-23T02:14:27;22.63;;;21.52;;
351;SDS011;164;50.784;6.496;2022-07-23T02:16:54;21.42;;;20.33;;
351;SDS011;164;50.784;6.496;2022-07-23T02:19:21;21.45;;;20.35;;
351;SDS011;164;50.784;6.496;2022-07-23T02:21:48;21.00;;;19.95;;
351;SDS011;164;50.784;6.496;2022-07-23T02:24:15;22.90;;;21.80;;
351;SDS011;164;50.784;6.496;2022-07-23T02:26:42;20.38;;;19.38;;
351;SDS011;164;50.784;6.496;2022-07-23T02:29:09;21.27;;;20.20;;
351;SDS011;164;50.784;6.496;2022-07-23T02:31:37;20.88;;;19.30;;
351;SDS011;164;50.784;6.496;2022-07-23T02:34:04;21.17;;;20.10;;
351;SDS011;164;50.784;6.496;2022-07-23T02:36:32;20.25;;;19.25;;
351;SDS011;164;50.784;6.496;2022-07-23T02:38:59;20.42;;;19.42;;
351;SDS011;164;50.784;6.496;2022-07-23T02:41:26;20.73;;;19.70;;
351;SDS011;164;50.784;6.496;2022-07-23T02:43:52;21.00;;;19.95;;
351;SDS011;164;50.784;6.496;2022-07-23T02:46:19;21.05;;;19.98;;
351;SDS011;164;50.784;6.496;2022-07-23T02:48:48;23.15;;;20.35;;
351;SDS011;164;50.784;6.496;2022-07-23T02:51:15;20.70;;;19.70;;
351;SDS011;164;50.784;6.496;2022-07-23T02:53:42;23.10;;;20.02;;
351;SDS011;164;50.784;6.496;2022-07-23T02:56:08;22.85;;;20.33;;
351;SDS011;164;50.784;6.496;2022-07-23T02:58:35;19.30;;;18.33;;
351;SDS011;164;50.784;6.496;2022-07-23T03:01:03;20.20;;;19.20;;
351;SDS011;164;50.784;6.496;2022-07-23T03:03:30;20.25;;;19.25;;
351;SDS011;164;50.784;6.496;2022-07-23T03:05:59;21.58;;;20.48;;
351;SDS011;164;50.784;6.496;2022-07-23T03:08:26;20.15;;;19.15;;
351;SDS011;164;50.784;6.496;2022-07-23T03:10:53;22.42;;;21.33;;
351;SDS011;164;50.784;6.496;2022-07-23T03:13:20;20.98;;;19.90;;
351;SDS011;164;50.784;6.496;2022-07-23T03:15:47;20.00;;;18.98;;
351;SDS011;164;50.784;6.496;2022-07-23T03:18:13;20.35;;;19.35;;
351;SDS011;164;50.784;6.496;2022-07-23T03:20:40;21.15;;;20.05;;
351;SDS011;164;50.784;6.496;2022-07-23T03:23:09;20.67;;;19.65;;
351;SDS011;164;50.784;6.496;2022-07-23T03:25:36;21.92;;;19.95;;
351;SDS011;164;50.784;6.496;2022-07-23T03:28:03;20.80;;;19.77;;
351;SDS011;164;50.784;6.496;2022-07-23T03:30:30;20.88;;;19.85;;
351;SDS011;164;50.784;6.496;2022-07-23T03:32:57;20.85;;;19.80;;
351;SDS011;164;50.784;6.496;2022-07-23T03:35:24;22.13;;;21.02;;
351;SDS011;164;50.784;6.496;2022-07-23T03:37:51;23.42;;;20.77;;
351;SDS011;164;50.784;6.496;2022-07-23T03:40:19;21.77;;;20.67;;
351;SDS011;164;50.784;6.496;2022-07-23T03:42:46;21.75;;;20.58;;
351;SDS011;164;50.784;6.496;2022-07-23T03:45:13;21.65;;;20.55;;
351;SDS011;164;50.784;6.496;2022-07-23T03:47:40;23.55;;;22.35;;
351;SDS011;164;50.784;6.496;2022-07-23T03:56:06;22.90;;;21.50;;
351;SDS011;164;50.784;6.496;2022-07-23T03:58:33;23.20;;;22.02;;
351;SDS011;164;50.784;6.496;2022-07-23T04:01:00;20.33;;;19.33;;
351;SDS011;164;50.784;6.496;2022-07-23T04:03:27;21.10;;;20.00;;
351;SDS011;164;50.784;6.496;2022-07-23T04:05:54;21.45;;;20.35;;
351;SDS011;164;50.784;6.496;2022-07-23T04:08:21;23.77;;;22.13;;
351;SDS011;164;50.784;6.496;2022-07-23T04:10:49;20.70;;;19.67;;
351;SDS011;164;50.784;6.496;2022-07-23T04:13:17;21.08;;;20.00;;
351;SDS011;164;50.784;6.496;2022-07-23T04:15:44;21.30;;;20.20;;
351;SDS011;164;50.784;6.496;2022-07-23T04:18:11;22.10;;;21.00;;
351;SDS011;164;50.784;6.496;2022-07-23T04:20:38;22.65;;;20.92;;
351;SDS011;164;50.784;6.496;2022-07-23T04:23:05;23.13;;;21.98;;
351;SDS011;164;50.784;6.496;2022-07-23T04:25:32;25.08;;;20.98;;
351;SDS011;164;50.784;6.496;2022-07-23T04:27:59;21.98;;;20.92;;
351;SDS011;164;50.784;6.496;2022-07-23T04:30:28;20.13;;;19.13;;
351;SDS011;164;50.784;6.496;2022-07-23T04:32:55;20.92;;;19.88;;
351;SDS011;164;50.784;6.496;2022-07-23T04:35:21;19.40;;;18.40;;
351;SDS011;164;50.784;6.496;2022-07-23T04:37:49;24.27;;;23.08;;
351;SDS011;164;50.784;6.496;2022-07-23T04:40:15;40.97;;;38.97;;
351;SDS011;164;50.784;6.496;2022-07-23T04:42:42;45.85;;;43.65;;
351;SDS011;164;50.784;6.496;2022-07-23T04:45:09;43.65;;;41.55;;
351;SDS011;164;50.784;6.496;2022-07-23T04:47:38;31.75;;;30.15;;
351;SDS011;164;50.784;6.496;2022-07-23T04:50:05;29.08;;;27.65;;
351;SDS011;164;50.784;6.496;2022-07-23T04:52:32;24.77;;;23.58;;
351;SDS011;164;50.784;6.496;2022-07-23T04:54:59;22.80;;;21.70;;
351;SDS011;164;50.784;6.496;2022-07-23T04:57:26;21.42;;;20.33;;
351;SDS011;164;50.784;6.496;2022-07-23T04:59:53;22.15;;;21.05;;
351;SDS011;164;50.784;6.496;2022-07-23T05:02:20;21.52;;;20.42;;
351;SDS011;164;50.784;6.496;2022-07-23T05:04:48;20.42;;;19.42;;
351;SDS011;164;50.784;6.496;2022-07-23T05:07:15;23.60;;;21.95;;
351;SDS011;164;50.784;6.496;2022-07-23T05:09:42;25.25;;;21.20;;
351;SDS011;164;50.784;6.496;2022-07-23T05:12:09;21.10;;;20.00;;
351;SDS011;164;50.784;6.496;2022-07-23T05:14:36;20.23;;;19.23;;
351;SDS011;164;50.784;6.496;2022-07-23T05:17:03;22.52;;;21.42;;
351;SDS011;164;50.784;6.496;2022-07-23T05:19:30;22.40;;;20.25;;
351;SDS011;164;50.784;6.496;2022-07-23T05:21:58;23.15;;;20.23;;
351;SDS011;164;50.784;6.496;2022-07-23T05:24:25;24.05;;;21.92;;
351;SDS011;164;50.784;6.496;2022-07-23T05:26:52;24.42;;;23.17;;
351;SDS011;164;50.784;6.496;2022-07-23T05:29:19;26.77;;;24.75;;
351;SDS011;164;50.784;6.496;2022-07-23T05:31:46;24.42;;;22.98;;
351;SDS011;164;50.784;6.496;2022-07-23T05:34:13;25.73;;;24.42;;
351;SDS011;164;50.784;6.496;2022-07-23T05:36:40;27.08;;;25.77;;
351;SDS011;164;50.784;6.496;2022-07-23T05:39:08;25.30;;;24.02;;
351;SDS011;164;50.784;6.496;2022-07-23T05:41:35;23.38;;;21.23;;
351;SDS011;164;50.784;6.496;2022-07-23T05:44:02;22.77;;;21.67;;
351;SDS011;164;50.784;6.496;2022-07-23T05:46:29;18.05;;;17.15;;
351;SDS011;164;50.784;6.496;2022-07-23T05:48:56;22.42;;;21.33;;
351;SDS011;164;50.784;6.496;2022-07-23T05:51:23;23.60;;;22.08;;
351;SDS011;164;50.784;6.496;2022-07-23T05:53:50;24.17;;;22.98;;
351;SDS011;164;50.784;6.496;2022-07-23T05:56:19;23.95;;;22.75;;
351;SDS011;164;50.784;6.496;2022-07-23T05:58:46;22.90;;;21.80;;
351;SDS011;164;50.784;6.496;2022-07-23T06:01:13;22.73;;;21.63;;
351;SDS011;164;50.784;6.496;2022-07-23T06:03:40;21.80;;;20.70;;
351;SDS011;164;50.784;6.496;2022-07-23T06:06:07;22.05;;;20.95;;
351;SDS011;164;50.784;6.496;2022-07-23T06:08:34;22.65;;;21.55;;
351;SDS011;164;50.784;6.496;2022-07-23T06:11:00;23.42;;;22.23;;
351;SDS011;164;50.784;6.496;2022-07-23T06:13:29;21.40;;;20.30;;
351;SDS011;164;50.784;6.496;2022-07-23T06:15:56;18.75;;;17.85;;
351;SDS011;164;50.784;6.496;2022-07-23T06:18:22;20.05;;;19.05;;
351;SDS011;164;50.784;6.496;2022-07-23T06:20:50;21.95;;;20.85;;
351;SDS011;164;50.784;6.496;2022-07-23T06:23:17;22.15;;;21.05;;
351;SDS011;164;50.784;6.496;2022-07-23T06:25:44;20.42;;;19.42;;
351;SDS011;164;50.784;6.496;2022-07-23T06:28:10;22.80;;;21.70;;
351;SDS011;164;50.784;6.496;2022-07-23T06:30:39;24.90;;;23.63;;
351;SDS011;164;50.784;6.496;2022-07-23T06:33:06;27.00;;;25.30;;
351;SDS011;164;50.784;6.496;2022-07-23T06:35:33;26.17;;;24.88;;
351;SDS011;164;50.784;6.496;2022-07-23T06:38:00;27.13;;;25.80;;
351;SDS011;164;50.784;6.496;2022-07-23T06:40:27;28.70;;;27.30;;
351;SDS011;164;50.784;6.496;2022-07-23T06:42:53;27.50;;;26.13;;
351;SDS011;164;50.784;6.496;2022-07-23T06:45:20;26.63;;;25.25;;
351;SDS011;164;50.784;6.496;2022-07-23T06:47:49;27.50;;;26.10;;
351;SDS011;164;50.784;6.496;2022-07-23T06:50:16;26.70;;;25.40;;
351;SDS011;164;50.784;6.496;2022-07-23T06:52:42;24.58;;;23.40;;
351;SDS011;164;50.784;6.496;2022-07-23T06:55:09;25.92;;;24.63;;
351;SDS011;164;50.784;6.496;2022-07-23T06:57:36;23.65;;;22.45;;
351;SDS011;164;50.784;6.496;2022-07-23T07:00:03;22.70;;;21.60;;
351;SDS011;164;50.784;6.496;2022-07-23T07:02:31;23.10;;;21.95;;
351;SDS011;164;50.784;6.496;2022-07-23T07:04:59;23.35;;;21.75;;
351;SDS011;164;50.784;6.496;2022-07-23T07:07:26;26.23;;;24.92;;
351;SDS011;164;50.784;6.496;2022-07-23T07:09:53;24.05;;;21.83;;
351;SDS011;164;50.784;6.496;2022-07-23T07:12:20;23.45;;;22.25;;
351;SDS011;164;50.784;6.496;2022-07-23T07:14:47;22.95;;;21.83;;
351;SDS011;164;50.784;6.496;2022-07-23T07:17:14;22.02;;;20.92;;
351;SDS011;164;50.784;6.496;2022-07-23T07:19:41;15.75;;;14.95;;
351;SDS011;164;50.784;6.496;2022-07-23T07:22:09;22.15;;;20.85;;
351;SDS011;164;50.784;6.496;2022-07-23T07:24:36;22.00;;;20.90;;
351;SDS011;164;50.784;6.496;2022-07-23T07:27:03;21.77;;;20.67;;
351;SDS011;164;50.784;6.496;2022-07-23T07:29:30;17.02;;;16.13;;
351;SDS011;164;50.784;6.496;2022-07-23T07:31:57;16.85;;;16.00;;
351;SDS011;164;50.784;6.496;2022-07-23T07:34:24;23.92;;;22.73;;
351;SDS011;164;50.784;6.496;2022-07-23T07:36:51;20.50;;;19.50;;
351;SDS011;164;50.784;6.496;2022-07-23T07:39:19;17.13;;;16.23;;
351;SDS011;164;50.784;6.496;2022-07-23T07:41:46;19.55;;;18.55;;
351;SDS011;164;50.784;6.496;2022-07-23T07:44:13;19.63;;;18.63;;
351;SDS011;164;50.784;6.496;2022-07-23T07:46:40;22.50;;;21.40;;
351;SDS011;164;50.784;6.496;2022-07-23T07:49:07;21.33;;;20.23;;
351;SDS011;164;50.784;6.496;2022-07-23T07:51:34;22.40;;;21.30;;
351;SDS011;164;50.784;6.496;2022-07-23T07:54:01;19.80;;;18.80;;
351;SDS011;164;50.784;6.496;2022-07-23T07:56:29;18.23;;;17.33;;
351;SDS011;164;50.784;6.496;2022-07-23T07:58:56;21.40;;;18.75;;
351;SDS011;164;50.784;6.496;2022-07-23T08:01:23;22.17;;;21.08;;
351;SDS011;164;50.784;6.496;2022-07-23T08:03:50;22.27;;;21.17;;
351;SDS011;164;50.784;6.496;2022-07-23T08:06:17;22.10;;;20.95;;
351;SDS011;164;50.784;6.496;2022-07-23T08:08:44;23.60;;;22.40;;
351;SDS011;164;50.784;6.496;2022-07-23T08:11:10;20.65;;;19.52;;
351;SDS011;164;50.784;6.496;2022-07-23T08:13:39;22.90;;;21.80;;
351;SDS011;164;50.784;6.496;2022-07-23T08:16:06;19.88;;;18.88;;
351;SDS011;164;50.784;6.496;2022-07-23T08:18:33;22.08;;;20.98;;
351;SDS011;164;50.784;6.496;2022-07-23T08:21:00;19.30;;;18.30;;
351;SDS011;164;50.784;6.496;2022-07-23T08:23:29;20.02;;;19.02;;
351;SDS011;164;50.784;6.496;2022-07-23T08:25:57;21.23;;;20.15;;
351;SDS011;164;50.784;6.496;2022-07-23T08:28:24;17.65;;;16.75;;
351;SDS011;164;50.784;6.496;2022-07-23T08:30:53;14.80;;;14.00;;
351;SDS011;164;50.784;6.496;2022-07-23T08:33:20;16.23;;;15.43;;
351;SDS011;164;50.784;6.496;2022-07-23T08:35:47;17.30;;;16.40;;
351;SDS011;164;50.784;6.496;2022-07-23T08:38:16;18.40;;;17.50;;
351;SDS011;164;50.784;6.496;2022-07-23T08:40:45;17.02;;;14.98;;
351;SDS011;164;50.784;6.496;2022-07-23T08:43:14;15.02;;;14.13;;
351;SDS011;164;50.784;6.496;2022-07-23T08:45:42;11.57;;;10.98;;
351;SDS011;164;50.784;6.496;2022-07-23T08:48:12;13.02;;;12.32;;
351;SDS011;164;50.784;6.496;2022-07-23T08:50:42;16.25;;;13.15;;
351;SDS011;164;50.784;6.496;2022-07-23T08:53:10;13.52;;;12.82;;
351;SDS011;164;50.784;6.496;2022-07-23T08:55:37;12.95;;;12.25;;
351;SDS011;164;50.784;6.496;2022-07-23T08:58:04;11.05;;;10.45;;
351;SDS011;164;50.784;6.496;2022-07-23T09:00:31;9.13;;;8.63;;
351;SDS011;164;50.784;6.496;2022-07-23T09:02:58;17.17;;;16.27;;
351;SDS011;164;50.784;6.496;2022-07-23T09:05:27;16.65;;;15.85;;
351;SDS011;164;50.784;6.496;2022-07-23T09:08:07;15.20;;;14.13;;
351;SDS011;164;50.784;6.496;2022-07-23T09:10:48;13.23;;;12.55;;
351;SDS011;164;50.784;6.496;2022-07-23T09:16:08;13.82;;;13.13;;
351;SDS011;164;50.784;6.496;2022-07-23T09:18:38;13.57;;;12.88;;
351;SDS011;164;50.784;6.496;2022-07-23T09:21:16;17.10;;;13.45;;
351;SDS011;164;50.784;6.496;2022-07-23T09:23:46;11.88;;;11.27;;
351;SDS011;164;50.784;6.496;2022-07-23T09:26:24;14.07;;;13.38;;
351;SDS011;164;50.784;6.496;2022-07-23T09:29:03;11.90;;;11.30;;
351;SDS011;164;50.784;6.496;2022-07-23T09:31:42;11.10;;;10.50;;
351;SDS011;164;50.784;6.496;2022-07-23T09:34:12;12.60;;;11.95;;
351;SDS011;164;50.784;6.496;2022-07-23T09:36:42;13.07;;;12.38;;
351;SDS011;164;50.784;6.496;2022-07-23T09:39:10;15.50;;;14.70;;
351;SDS011;164;50.784;6.496;2022-07-23T09:41:39;11.70;;;11.10;;
351;SDS011;164;50.784;6.496;2022-07-23T09:44:09;13.13;;;12.43;;
351;SDS011;164;50.784;6.496;2022-07-23T09:46:38;13.43;;;12.73;;
351;SDS011;164;50.784;6.496;2022-07-23T09:49:13;15.18;;;14.38;;
351;SDS011;164;50.784;6.496;2022-07-23T09:51:47;15.88;;;15.07;;
351;SDS011;164;50.784;6.496;2022-07-23T09:54:25;14.43;;;13.73;;
351;SDS011;164;50.784;6.496;2022-07-23T09:56:57;11.18;;;10.57;;
351;SDS011;164;50.784;6.496;2022-07-23T09:59:26;13.57;;;10.93;;
351;SDS011;164;50.784;6.496;2022-07-23T10:01:55;13.32;;;12.63;;
351;SDS011;164;50.784;6.496;2022-07-23T10:04:25;10.95;;;10.35;;
351;SDS011;164;50.784;6.496;2022-07-23T10:06:55;10.25;;;9.75;;
351;SDS011;164;50.784;6.496;2022-07-23T10:09:24;9.18;;;8.68;;
351;SDS011;164;50.784;6.496;2022-07-23T10:11:57;11.82;;;10.95;;
351;SDS011;164;50.784;6.496;2022-07-23T10:14:33;11.65;;;11.05;;
351;SDS011;164;50.784;6.496;2022-07-23T10:17:00;9.82;;;9.32;;
351;SDS011;164;50.784;6.496;2022-07-23T10:19:27;8.65;;;8.15;;
351;SDS011;164;50.784;6.496;2022-07-23T10:21:57;8.88;;;8.38;;
351;SDS011;164;50.784;6.496;2022-07-23T10:24:34;10.77;;;10.20;;
351;SDS011;164;50.784;6.496;2022-07-23T10:27:15;8.98;;;8.48;;
351;SDS011;164;50.784;6.496;2022-07-23T10:30:09;8.68;;;8.05;;
351;SDS011;164;50.784;6.496;2022-07-23T10:32:43;8.18;;;7.78;;
351;SDS011;164;50.784;6.496;2022-07-23T10:35:19;8.55;;;8.05;;
351;SDS011;164;50.784;6.496;2022-07-23T10:37:54;6.10;;;5.80;;
351;SDS011;164;50.784;6.496;2022-07-23T10:40:28;7.00;;;5.32;;
351;SDS011;164;50.784;6.496;2022-07-23T10:42:58;5.50;;;5.20;;
351;SDS011;164;50.784;6.496;2022-07-23T10:45:30;6.55;;;6.18;;
351;SDS011;164;50.784;6.496;2022-07-23T10:50:41;3.83;;;3.67;;
351;SDS011;164;50.784;6.496;2022-07-23T10:53:17;3.13;;;2.92;;
351;SDS011;164;50.784;6.496;2022-07-23T10:55:45;6.60;;;6.20;;
351;SDS011;164;50.784;6.496;2022-07-23T10:58:17;7.85;;;7.45;;
351;SDS011;164;50.784;6.496;2022-07-23T11:00:46;8.65;;;8.15;;
351;SDS011;164;50.784;6.496;2022-07-23T11:03:32;5.40;;;5.10;;
351;SDS011;164;50.784;6.496;2022-07-23T11:06:02;6.80;;;6.40;;
351;SDS011;164;50.784;6.496;2022-07-23T11:08:32;6.07;;;5.77;;
351;SDS011;164;50.784;6.496;2022-07-23T11:11:09;5.57;;;5.27;;
351;SDS011;164;50.784;6.496;2022-07-23T11:13:41;6.57;;;6.17;;
351;SDS011;164;50.784;6.496;2022-07-23T11:16:18;6.97;;;6.57;;
351;SDS011;164;50.784;6.496;2022-07-23T11:24:24;6.00;;;5.18;;
351;SDS011;164;50.784;6.496;2022-07-23T11:26:58;4.87;;;4.60;;
351;SDS011;164;50.784;6.496;2022-07-23T11:29:44;4.73;;;4.40;;
351;SDS011;164;50.784;6.496;2022-07-23T11:32:33;6.17;;;5.87;;
351;SDS011;164;50.784;6.496;2022-07-23T11:35:03;7.40;;;6.97;;
351;SDS011;164;50.784;6.496;2022-07-23T11:37:53;5.57;;;5.27;;
351;SDS011;164;50.784;6.496;2022-07-23T11:40:25;6.27;;;5.93;;
351;SDS011;164;50.784;6.496;2022-07-23T11:42:54;7.80;;;7.40;;
351;SDS011;164;50.784;6.496;2022-07-23T11:45:23;8.30;;;6.20;;
351;SDS011;164;50.784;6.496;2022-07-23T11:47:51;6.10;;;5.80;;
351;SDS011;164;50.784;6.496;2022-07-23T11:50:18;6.67;;;6.30;;
351;SDS011;164;50.784;6.496;2022-07-23T11:52:49;7.80;;;7.40;;
351;SDS011;164;50.784;6.496;2022-07-23T11:55:16;5.27;;;4.97;;
351;SDS011;164;50.784;6.496;2022-07-23T11:57:45;4.63;;;4.33;;
351;SDS011;164;50.784;6.496;2022-07-23T12:00:14;4.70;;;4.30;;
351;SDS011;164;50.784;6.496;2022-07-23T12:02:43;5.87;;;5.57;;
351;SDS011;164;50.784;6.496;2022-07-23T12:05:12;6.67;;;5.00;;
351;SDS011;164;50.784;6.496;2022-07-23T12:07:40;6.00;;;5.70;;
351;SDS011;164;50.784;6.496;2022-07-23T12:10:10;6.07;;;5.77;;
351;SDS011;164;50.784;6.496;2022-07-23T12:12:40;5.50;;;5.20;;
351;SDS011;164;50.784;6.496;2022-07-23T12:15:12;5.10;;;4.80;;
351;SDS011;164;50.784;6.496;2022-07-23T12:17:42;5.57;;;5.27;;
351;SDS011;164;50.784;6.496;2022-07-23T12:20:13;5.70;;;4.93;;
351;SDS011;164;50.784;6.496;2022-07-23T12:22:41;5.80;;;5.50;;
351;SDS011;164;50.784;6.496;2022-07-23T12:25:11;6.20;;;4.73;;
351;SDS011;164;50.784;6.496;2022-07-23T12:27:40;6.33;;;5.27;;
351;SDS011;164;50.784;6.496;2022-07-23T12:30:19;8.07;;;5.20;;
351;SDS011;164;50.784;6.496;2022-07-23T12:32:49;4.53;;;4.27;;
351;SDS011;164;50.784;6.496;2022-07-23T12:35:17;6.07;;;4.73;;
351;SDS011;164;50.784;6.496;2022-07-23T12:37:46;6.30;;;5.67;;
351;SDS011;164;50.784;6.496;2022-07-23T12:40:18;5.73;;;5.47;;
351;SDS011;164;50.784;6.496;2022-07-23T12:42:49;4.73;;;4.43;;
351;SDS011;164;50.784;6.496;2022-07-23T12:45:20;4.93;;;4.63;;
351;SDS011;164;50.784;6.496;2022-07-23T12:47:54;5.17;;;4.93;;
351;SDS011;164;50.784;6.496;2022-07-23T12:53:18;3.67;;;3.50;;
351;SDS011;164;50.784;6.496;2022-07-23T12:55:47;3.40;;;3.20;;
351;SDS011;164;50.784;6.496;2022-07-23T12:58:15;5.33;;;4.20;;
351;SDS011;164;50.784;6.496;2022-07-23T13:00:52;3.67;;;3.47;;
351;SDS011;164;50.784;6.496;2022-07-23T13:03:21;4.43;;;4.13;;
351;SDS011;164;50.784;6.496;2022-07-23T13:05:49;4.90;;;3.77;;
351;SDS011;164;50.784;6.496;2022-07-23T13:08:16;5.17;;;4.57;;
351;SDS011;164;50.784;6.496;2022-07-23T13:10:43;5.10;;;4.80;;
351;SDS011;164;50.784;6.496;2022-07-23T13:13:13;5.60;;;5.30;;
351;SDS011;164;50.784;6.496;2022-07-23T13:15:41;4.87;;;4.17;;
351;SDS011;164;50.784;6.496;2022-07-23T13:18:09;5.30;;;5.00;;
351;SDS011;164;50.784;6.496;2022-07-23T13:20:36;4.53;;;4.23;;
351;SDS011;164;50.784;6.496;2022-07-23T13:23:05;6.60;;;4.50;;
351;SDS011;164;50.784;6.496;2022-07-23T13:25:32;6.63;;;5.80;;
351;SDS011;164;50.784;6.496;2022-07-23T13:27:59;7.03;;;5.43;;
351;SDS011;164;50.784;6.496;2022-07-23T13:30:26;6.50;;;4.50;;
351;SDS011;164;50.784;6.496;2022-07-23T13:32:54;5.87;;;5.57;;
351;SDS011;164;50.784;6.496;2022-07-23T13:35:22;5.70;;;4.63;;
351;SDS011;164;50.784;6.496;2022-07-23T13:37:49;7.90;;;5.20;;
351;SDS011;164;50.784;6.496;2022-07-23T13:40:17;5.77;;;5.47;;
351;SDS011;164;50.784;6.496;2022-07-23T13:42:44;5.20;;;3.90;;
351;SDS011;164;50.784;6.496;2022-07-23T13:45:11;7.47;;;5.30;;
351;SDS011;164;50.784;6.496;2022-07-23T13:47:38;5.13;;;4.43;;
351;SDS011;164;50.784;6.496;2022-07-23T13:50:06;4.57;;;4.27;;
351;SDS011;164;50.784;6.496;2022-07-23T13:52:34;4.70;;;4.40;;
351;SDS011;164;50.784;6.496;2022-07-23T13:55:05;6.43;;;5.10;;
351;SDS011;164;50.784;6.496;2022-07-23T13:57:33;7.00;;;4.20;;
351;SDS011;164;50.784;6.496;2022-07-23T14:00:00;4.87;;;4.00;;
351;SDS011;164;50.784;6.496;2022-07-23T14:02:27;4.80;;;4.10;;
351;SDS011;164;50.784;6.496;2022-07-23T14:04:55;4.87;;;4.47;;
351;SDS011;164;50.784;6.496;2022-07-23T14:07:23;5.00;;;4.70;;
351;SDS011;164;50.784;6.496;2022-07-23T14:09:51;3.50;;;3.30;;
351;SDS011;164;50.784;6.496;2022-07-23T14:12:18;4.37;;;4.00;;
351;SDS011;164;50.784;6.496;2022-07-23T14:14:48;5.20;;;4.10;;
351;SDS011;164;50.784;6.496;2022-07-23T14:17:15;4.40;;;4.10;;
351;SDS011;164;50.784;6.496;2022-07-23T14:19:42;4.90;;;4.47;;
351;SDS011;164;50.784;6.496;2022-07-23T14:22:09;4.70;;;4.30;;
351;SDS011;164;50.784;6.496;2022-07-23T14:24:36;3.47;;;3.27;;
351;SDS011;164;50.784;6.496;2022-07-23T14:27:06;6.13;;;3.90;;
351;SDS011;164;50.784;6.496;2022-07-23T14:29:34;3.90;;;3.57;;
351;SDS011;164;50.784;6.496;2022-07-23T14:32:01;3.33;;;2.90;;
351;SDS011;164;50.784;6.496;2022-07-23T14:34:28;3.53;;;3.33;;
351;SDS011;164;50.784;6.496;2022-07-23T14:36:55;3.20;;;3.00;;
351;SDS011;164;50.784;6.496;2022-07-23T14:39:23;3.30;;;3.10;;
351;SDS011;164;50.784;6.496;2022-07-23T14:41:50;4.03;;;3.83;;
351;SDS011;164;50.784;6.496;2022-07-23T14:44:18;3.70;;;3.00;;
351;SDS011;164;50.784;6.496;2022-07-23T14:46:46;4.50;;;4.20;;
351;SDS011;164;50.784;6.496;2022-07-23T14:49:12;4.00;;;3.60;;
351;SDS011;164;50.784;6.496;2022-07-23T14:51:39;3.77;;;3.30;;
351;SDS011;164;50.784;6.496;2022-07-23T14:54:07;3.13;;;2.93;;
351;SDS011;164;50.784;6.496;2022-07-23T14:56:34;3.90;;;3.40;;
351;SDS011;164;50.784;6.496;2022-07-23T14:59:01;3.70;;;3.50;;
351;SDS011;164;50.784;6.496;2022-07-23T15:01:30;3.80;;;3.60;;
351;SDS011;164;50.784;6.496;2022-07-23T15:03:57;3.70;;;3.17;;
351;SDS011;164;50.784;6.496;2022-07-23T15:06:25;5.00;;;3.50;;
351;SDS011;164;50.784;6.496;2022-07-23T15:08:52;2.53;;;2.33;;
351;SDS011;164;50.784;6.496;2022-07-23T15:11:19;3.87;;;2.80;;
351;SDS011;164;50.784;6.496;2022-07-23T15:13:46;2.30;;;2.10;;
351;SDS011;164;50.784;6.496;2022-07-23T15:16:13;4.57;;;3.10;;
351;SDS011;164;50.784;6.496;2022-07-23T15:18:42;5.03;;;3.80;;
351;SDS011;164;50.784;6.496;2022-07-23T15:21:10;3.70;;;3.47;;
351;SDS011;164;50.784;6.496;2022-07-23T15:23:37;4.03;;;3.47;;
351;SDS011;164;50.784;6.496;2022-07-23T15:26:05;3.83;;;3.20;;
351;SDS011;164;50.784;6.496;2022-07-23T15:28:33;3.30;;;3.10;;
351;SDS011;164;50.784;6.496;2022-07-23T15:31:00;3.63;;;3.43;;
351;SDS011;164;50.784;6.496;2022-07-23T15:33:27;3.17;;;2.97;;
351;SDS011;164;50.784;6.496;2022-07-23T15:35:56;4.67;;;3.47;;
351;SDS011;164;50.784;6.496;2022-07-23T15:38:24;4.77;;;3.10;;
351;SDS011;164;50.784;6.496;2022-07-23T15:40:52;2.80;;;2.67;;
351;SDS011;164;50.784;6.496;2022-07-23T15:43:20;3.23;;;3.03;;
351;SDS011;164;50.784;6.496;2022-07-23T15:45:47;5.13;;;3.43;;
351;SDS011;164;50.784;6.496;2022-07-23T15:48:14;4.03;;;3.60;;
351;SDS011;164;50.784;6.496;2022-07-23T15:50:42;3.77;;;2.80;;
351;SDS011;164;50.784;6.496;2022-07-23T15:53:10;4.00;;;3.80;;
351;SDS011;164;50.784;6.496;2022-07-23T15:55:38;3.30;;;3.10;;